sensor_id;sensor_type;location;lat;lon;timestamp;temperature;humidity
82851;DHT22;72609;45.768;4.884;2023-12-29T00:00:03;11.50;81.00
82851;DHT22;72609;45.768;4.884;2023-12-29T00:02:28;11.40;80.50
82851;DHT22;72609;45.768;4.884;2023-12-29T00:04:54;11.50;80.90
82851;DHT22;72609;45.768;4.884;2023-12-29T00:07:20;11.40;81.30
82851;DHT22;72609;45.768;4.884;2023-12-29T00:09:45;11.40;81.10
82851;DHT22;72609;45.768;4.884;2023-12-29T00:12:11;11.30;81.60
82851;DHT22;72609;45.768;4.884;2023-12-29T00:14:38;11.40;81.70
82851;DHT22;72609;45.768;4.884;2023-12-29T00:17:04;11.30;81.70
82851;DHT22;72609;45.768;4.884;2023-12-29T00:19:29;11.30;81.80
82851;DHT22;72609;45.768;4.884;2023-12-29T00:21:55;11.30;81.80
82851;DHT22;72609;45.768;4.884;2023-12-29T00:24:20;11.30;81.70
82851;DHT22;72609;45.768;4.884;2023-12-29T00:26:46;11.30;81.60
82851;DHT22;72609;45.768;4.884;2023-12-29T00:29:14;11.30;81.70
82851;DHT22;72609;45.768;4.884;2023-12-29T00:31:40;11.40;81.50
82851;DHT22;72609;45.768;4.884;2023-12-29T00:34:06;11.30;81.40
82851;DHT22;72609;45.768;4.884;2023-12-29T00:36:31;11.30;81.40
82851;DHT22;72609;45.768;4.884;2023-12-29T00:38:57;11.40;81.30
82851;DHT22;72609;45.768;4.884;2023-12-29T00:41:23;11.40;81.10
82851;DHT22;72609;45.768;4.884;2023-12-29T00:43:48;11.50;81.00
82851;DHT22;72609;45.768;4.884;2023-12-29T00:46:17;11.50;80.80
82851;DHT22;72609;45.768;4.884;2023-12-29T00:48:42;11.50;80.80
82851;DHT22;72609;45.768;4.884;2023-12-29T00:51:08;11.50;80.70
82851;DHT22;72609;45.768;4.884;2023-12-29T00:53:37;11.50;80.70
82851;DHT22;72609;45.768;4.884;2023-12-29T00:56:02;11.50;80.80
82851;DHT22;72609;45.768;4.884;2023-12-29T00:58:28;11.50;80.90
82851;DHT22;72609;45.768;4.884;2023-12-29T01:00:54;11.50;81.00
82851;DHT22;72609;45.768;4.884;2023-12-29T01:03:19;11.50;80.90
82851;DHT22;72609;45.768;4.884;2023-12-29T01:05:45;11.50;81.00
82851;DHT22;72609;45.768;4.884;2023-12-29T01:08:11;11.50;81.50
82851;DHT22;72609;45.768;4.884;2023-12-29T01:10:37;11.50;80.90
82851;DHT22;72609;45.768;4.884;2023-12-29T01:13:03;11.50;81.00
82851;DHT22;72609;45.768;4.884;2023-12-29T01:15:29;11.50;81.10
82851;DHT22;72609;45.768;4.884;2023-12-29T01:17:55;11.50;81.20
82851;DHT22;72609;45.768;4.884;2023-12-29T01:20:21;11.50;81.30
82851;DHT22;72609;45.768;4.884;2023-12-29T01:22:46;11.50;81.20
82851;DHT22;72609;45.768;4.884;2023-12-29T01:25:12;11.50;81.20
82851;DHT22;72609;45.768;4.884;2023-12-29T01:27:38;11.50;81.20
82851;DHT22;72609;45.768;4.884;2023-12-29T01:30:04;11.50;81.00
82851;DHT22;72609;45.768;4.884;2023-12-29T01:32:30;11.50;80.90
82851;DHT22;72609;45.768;4.884;2023-12-29T01:34:55;11.50;80.90
82851;DHT22;72609;45.768;4.884;2023-12-29T01:37:21;11.50;80.80
82851;DHT22;72609;45.768;4.884;2023-12-29T01:39:47;11.50;81.10
82851;DHT22;72609;45.768;4.884;2023-12-29T01:42:12;11.50;81.00
82851;DHT22;72609;45.768;4.884;2023-12-29T01:44:38;11.40;81.10
82851;DHT22;72609;45.768;4.884;2023-12-29T01:47:08;11.40;81.10
82851;DHT22;72609;45.768;4.884;2023-12-29T01:49:36;11.50;81.30
82851;DHT22;72609;45.768;4.884;2023-12-29T01:52:02;11.50;81.30
82851;DHT22;72609;45.768;4.884;2023-12-29T01:54:31;11.40;81.10
82851;DHT22;72609;45.768;4.884;2023-12-29T01:56:59;11.50;81.30
82851;DHT22;72609;45.768;4.884;2023-12-29T01:59:26;11.50;81.00
82851;DHT22;72609;45.768;4.884;2023-12-29T02:01:54;11.50;80.80
82851;DHT22;72609;45.768;4.884;2023-12-29T02:04:26;11.60;80.80
82851;DHT22;72609;45.768;4.884;2023-12-29T02:06:52;11.60;80.60
82851;DHT22;72609;45.768;4.884;2023-12-29T02:09:18;11.60;80.60
82851;DHT22;72609;45.768;4.884;2023-12-29T02:11:44;11.50;80.60
82851;DHT22;72609;45.768;4.884;2023-12-29T02:14:10;11.50;80.60
82851;DHT22;72609;45.768;4.884;2023-12-29T02:17:04;11.50;81.30
82851;DHT22;72609;45.768;4.884;2023-12-29T02:19:39;11.50;80.80
82851;DHT22;72609;45.768;4.884;2023-12-29T02:22:06;11.50;80.80
82851;DHT22;72609;45.768;4.884;2023-12-29T02:24:33;11.50;81.40
82851;DHT22;72609;45.768;4.884;2023-12-29T02:29:34;11.50;81.40
82851;DHT22;72609;45.768;4.884;2023-12-29T02:32:04;11.50;82.10
82851;DHT22;72609;45.768;4.884;2023-12-29T02:34:32;11.60;81.40
82851;DHT22;72609;45.768;4.884;2023-12-29T02:36:58;11.60;81.10
82851;DHT22;72609;45.768;4.884;2023-12-29T02:39:24;11.60;81.20
82851;DHT22;72609;45.768;4.884;2023-12-29T02:41:50;11.60;81.30
82851;DHT22;72609;45.768;4.884;2023-12-29T02:44:16;11.60;81.60
82851;DHT22;72609;45.768;4.884;2023-12-29T02:46:41;11.60;81.60
82851;DHT22;72609;45.768;4.884;2023-12-29T02:49:07;11.60;82.30
82851;DHT22;72609;45.768;4.884;2023-12-29T02:51:36;11.60;82.70
82851;DHT22;72609;45.768;4.884;2023-12-29T02:54:02;11.50;82.20
82851;DHT22;72609;45.768;4.884;2023-12-29T02:56:28;11.40;85.20
82851;DHT22;72609;45.768;4.884;2023-12-29T02:58:53;11.30;85.60
82851;DHT22;72609;45.768;4.884;2023-12-29T03:01:19;11.30;86.50
82851;DHT22;72609;45.768;4.884;2023-12-29T03:03:44;11.20;86.70
82851;DHT22;72609;45.768;4.884;2023-12-29T03:06:10;11.20;87.10
82851;DHT22;72609;45.768;4.884;2023-12-29T03:08:36;11.10;88.50
82851;DHT22;72609;45.768;4.884;2023-12-29T03:11:01;11.10;89.80
82851;DHT22;72609;45.768;4.884;2023-12-29T03:13:27;11.00;90.20
82851;DHT22;72609;45.768;4.884;2023-12-29T03:15:52;11.00;90.40
82851;DHT22;72609;45.768;4.884;2023-12-29T03:18:18;10.90;90.50
82851;DHT22;72609;45.768;4.884;2023-12-29T03:20:43;10.90;90.30
82851;DHT22;72609;45.768;4.884;2023-12-29T03:23:09;10.90;90.50
82851;DHT22;72609;45.768;4.884;2023-12-29T03:25:35;11.00;90.20
82851;DHT22;72609;45.768;4.884;2023-12-29T03:28:00;11.00;90.00
82851;DHT22;72609;45.768;4.884;2023-12-29T03:30:26;11.10;89.40
82851;DHT22;72609;45.768;4.884;2023-12-29T03:32:51;11.20;88.90
82851;DHT22;72609;45.768;4.884;2023-12-29T03:35:17;11.20;89.10
82851;DHT22;72609;45.768;4.884;2023-12-29T03:37:43;11.20;89.20
82851;DHT22;72609;45.768;4.884;2023-12-29T03:40:09;11.20;90.10
82851;DHT22;72609;45.768;4.884;2023-12-29T03:42:35;11.20;90.00
82851;DHT22;72609;45.768;4.884;2023-12-29T03:45:01;11.20;89.40
82851;DHT22;72609;45.768;4.884;2023-12-29T03:47:26;11.10;90.20
82851;DHT22;72609;45.768;4.884;2023-12-29T03:49:53;10.90;90.70
82851;DHT22;72609;45.768;4.884;2023-12-29T03:52:18;10.80;91.10
82851;DHT22;72609;45.768;4.884;2023-12-29T03:54:44;10.80;91.30
82851;DHT22;72609;45.768;4.884;2023-12-29T03:57:10;10.90;90.70
82851;DHT22;72609;45.768;4.884;2023-12-29T03:59:38;11.00;90.40
82851;DHT22;72609;45.768;4.884;2023-12-29T04:02:04;11.00;90.40
82851;DHT22;72609;45.768;4.884;2023-12-29T04:04:29;10.90;90.90
82851;DHT22;72609;45.768;4.884;2023-12-29T04:06:55;10.80;91.30
82851;DHT22;72609;45.768;4.884;2023-12-29T04:09:21;10.80;91.10
82851;DHT22;72609;45.768;4.884;2023-12-29T04:11:47;10.80;91.10
82851;DHT22;72609;45.768;4.884;2023-12-29T04:14:12;10.80;91.50
82851;DHT22;72609;45.768;4.884;2023-12-29T04:16:39;10.80;91.20
82851;DHT22;72609;45.768;4.884;2023-12-29T04:19:04;10.70;91.30
82851;DHT22;72609;45.768;4.884;2023-12-29T04:21:30;10.70;91.40
82851;DHT22;72609;45.768;4.884;2023-12-29T04:23:56;10.60;91.50
82851;DHT22;72609;45.768;4.884;2023-12-29T04:26:21;10.60;91.50
82851;DHT22;72609;45.768;4.884;2023-12-29T04:28:47;10.60;91.60
82851;DHT22;72609;45.768;4.884;2023-12-29T04:31:12;10.60;91.40
82851;DHT22;72609;45.768;4.884;2023-12-29T04:33:38;10.70;91.20
82851;DHT22;72609;45.768;4.884;2023-12-29T04:36:04;10.90;90.80
82851;DHT22;72609;45.768;4.884;2023-12-29T04:38:29;10.90;90.70
82851;DHT22;72609;45.768;4.884;2023-12-29T04:40:55;10.80;90.80
82851;DHT22;72609;45.768;4.884;2023-12-29T04:43:21;10.70;91.00
82851;DHT22;72609;45.768;4.884;2023-12-29T04:45:46;10.60;91.20
82851;DHT22;72609;45.768;4.884;2023-12-29T04:48:12;10.70;91.00
82851;DHT22;72609;45.768;4.884;2023-12-29T04:50:38;10.90;90.80
82851;DHT22;72609;45.768;4.884;2023-12-29T04:53:03;10.90;90.60
82851;DHT22;72609;45.768;4.884;2023-12-29T04:55:29;11.00;90.60
82851;DHT22;72609;45.768;4.884;2023-12-29T04:57:54;11.00;90.50
82851;DHT22;72609;45.768;4.884;2023-12-29T05:00:20;11.00;90.50
82851;DHT22;72609;45.768;4.884;2023-12-29T05:02:46;11.10;90.20
82851;DHT22;72609;45.768;4.884;2023-12-29T05:05:11;11.10;90.40
82851;DHT22;72609;45.768;4.884;2023-12-29T05:07:37;11.00;90.40
82851;DHT22;72609;45.768;4.884;2023-12-29T05:10:03;10.90;90.80
82851;DHT22;72609;45.768;4.884;2023-12-29T05:12:29;10.90;90.80
82851;DHT22;72609;45.768;4.884;2023-12-29T05:14:55;10.90;90.80
82851;DHT22;72609;45.768;4.884;2023-12-29T05:17:21;10.80;91.20
82851;DHT22;72609;45.768;4.884;2023-12-29T05:19:46;10.90;90.70
82851;DHT22;72609;45.768;4.884;2023-12-29T05:22:12;10.90;90.80
82851;DHT22;72609;45.768;4.884;2023-12-29T05:24:41;10.90;90.70
82851;DHT22;72609;45.768;4.884;2023-12-29T05:27:07;11.00;90.80
82851;DHT22;72609;45.768;4.884;2023-12-29T05:29:33;10.90;90.70
82851;DHT22;72609;45.768;4.884;2023-12-29T05:31:58;10.90;90.80
82851;DHT22;72609;45.768;4.884;2023-12-29T05:34:24;10.80;91.00
82851;DHT22;72609;45.768;4.884;2023-12-29T05:36:49;10.80;91.10
82851;DHT22;72609;45.768;4.884;2023-12-29T05:39:15;10.90;90.90
82851;DHT22;72609;45.768;4.884;2023-12-29T05:41:41;10.90;90.80
82851;DHT22;72609;45.768;4.884;2023-12-29T05:44:06;10.90;90.90
82851;DHT22;72609;45.768;4.884;2023-12-29T05:46:32;10.90;90.80
82851;DHT22;72609;45.768;4.884;2023-12-29T05:48:57;10.90;90.90
82851;DHT22;72609;45.768;4.884;2023-12-29T05:51:23;10.90;90.80
82851;DHT22;72609;45.768;4.884;2023-12-29T05:53:48;10.80;90.90
82851;DHT22;72609;45.768;4.884;2023-12-29T05:56:14;10.80;90.80
82851;DHT22;72609;45.768;4.884;2023-12-29T05:58:41;10.80;90.80
82851;DHT22;72609;45.768;4.884;2023-12-29T06:01:07;10.90;90.70
82851;DHT22;72609;45.768;4.884;2023-12-29T06:03:33;10.80;90.80
82851;DHT22;72609;45.768;4.884;2023-12-29T06:05:58;10.90;90.80
82851;DHT22;72609;45.768;4.884;2023-12-29T06:08:24;10.80;90.70
82851;DHT22;72609;45.768;4.884;2023-12-29T06:10:50;10.80;90.90
82851;DHT22;72609;45.768;4.884;2023-12-29T06:13:15;10.80;90.80
82851;DHT22;72609;45.768;4.884;2023-12-29T06:15:41;10.80;90.80
82851;DHT22;72609;45.768;4.884;2023-12-29T06:18:06;10.70;91.00
82851;DHT22;72609;45.768;4.884;2023-12-29T06:20:32;10.70;91.00
82851;DHT22;72609;45.768;4.884;2023-12-29T06:22:57;10.70;90.90
82851;DHT22;72609;45.768;4.884;2023-12-29T06:25:23;10.70;90.90
82851;DHT22;72609;45.768;4.884;2023-12-29T06:27:49;10.70;91.00
82851;DHT22;72609;45.768;4.884;2023-12-29T06:30:15;10.70;91.10
82851;DHT22;72609;45.768;4.884;2023-12-29T06:32:41;10.70;91.00
82851;DHT22;72609;45.768;4.884;2023-12-29T06:35:07;10.80;90.80
82851;DHT22;72609;45.768;4.884;2023-12-29T06:37:36;10.80;90.60
82851;DHT22;72609;45.768;4.884;2023-12-29T06:40:02;10.90;90.50
82851;DHT22;72609;45.768;4.884;2023-12-29T06:42:29;10.90;90.40
82851;DHT22;72609;45.768;4.884;2023-12-29T06:44:54;10.80;90.50
82851;DHT22;72609;45.768;4.884;2023-12-29T06:47:20;10.70;90.60
82851;DHT22;72609;45.768;4.884;2023-12-29T06:49:45;10.60;90.90
82851;DHT22;72609;45.768;4.884;2023-12-29T06:52:11;10.60;91.00
82851;DHT22;72609;45.768;4.884;2023-12-29T06:54:37;10.60;91.20
82851;DHT22;72609;45.768;4.884;2023-12-29T06:57:02;10.60;90.90
82851;DHT22;72609;45.768;4.884;2023-12-29T06:59:28;10.60;90.90
82851;DHT22;72609;45.768;4.884;2023-12-29T07:01:53;10.60;90.80
82851;DHT22;72609;45.768;4.884;2023-12-29T07:04:19;10.60;90.90
82851;DHT22;72609;45.768;4.884;2023-12-29T07:06:45;10.60;90.80
82851;DHT22;72609;45.768;4.884;2023-12-29T07:09:10;10.70;90.60
82851;DHT22;72609;45.768;4.884;2023-12-29T07:11:36;10.80;90.50
82851;DHT22;72609;45.768;4.884;2023-12-29T07:14:02;10.80;90.20
82851;DHT22;72609;45.768;4.884;2023-12-29T07:16:28;10.90;90.10
82851;DHT22;72609;45.768;4.884;2023-12-29T07:18:53;10.90;90.00
82851;DHT22;72609;45.768;4.884;2023-12-29T07:21:19;10.90;90.00
82851;DHT22;72609;45.768;4.884;2023-12-29T07:23:45;10.90;90.00
82851;DHT22;72609;45.768;4.884;2023-12-29T07:26:10;10.90;90.10
82851;DHT22;72609;45.768;4.884;2023-12-29T07:28:36;10.90;90.10
82851;DHT22;72609;45.768;4.884;2023-12-29T07:31:01;10.90;90.20
82851;DHT22;72609;45.768;4.884;2023-12-29T07:33:27;10.90;90.20
82851;DHT22;72609;45.768;4.884;2023-12-29T07:35:53;10.80;90.50
82851;DHT22;72609;45.768;4.884;2023-12-29T07:38:19;10.80;90.80
82851;DHT22;72609;45.768;4.884;2023-12-29T07:40:45;10.60;91.80
82851;DHT22;72609;45.768;4.884;2023-12-29T07:43:11;10.50;92.40
82851;DHT22;72609;45.768;4.884;2023-12-29T07:45:36;10.40;92.80
82851;DHT22;72609;45.768;4.884;2023-12-29T07:48:03;10.50;92.90
82851;DHT22;72609;45.768;4.884;2023-12-29T07:50:29;10.40;92.50
82851;DHT22;72609;45.768;4.884;2023-12-29T07:52:55;10.50;92.40
82851;DHT22;72609;45.768;4.884;2023-12-29T07:55:20;10.40;92.20
82851;DHT22;72609;45.768;4.884;2023-12-29T07:57:46;10.50;91.90
82851;DHT22;72609;45.768;4.884;2023-12-29T08:00:14;10.50;91.80
82851;DHT22;72609;45.768;4.884;2023-12-29T08:02:40;10.50;91.70
82851;DHT22;72609;45.768;4.884;2023-12-29T08:05:05;10.50;91.70
82851;DHT22;72609;45.768;4.884;2023-12-29T08:07:33;10.50;91.60
82851;DHT22;72609;45.768;4.884;2023-12-29T08:10:00;10.50;91.40
82851;DHT22;72609;45.768;4.884;2023-12-29T08:12:26;10.50;91.50
82851;DHT22;72609;45.768;4.884;2023-12-29T08:14:53;10.50;91.40
82851;DHT22;72609;45.768;4.884;2023-12-29T08:17:19;10.50;91.30
82851;DHT22;72609;45.768;4.884;2023-12-29T08:19:44;10.50;91.40
82851;DHT22;72609;45.768;4.884;2023-12-29T08:22:10;10.50;91.40
82851;DHT22;72609;45.768;4.884;2023-12-29T08:24:36;10.60;91.20
82851;DHT22;72609;45.768;4.884;2023-12-29T08:27:02;10.60;91.20
82851;DHT22;72609;45.768;4.884;2023-12-29T08:29:29;10.70;91.20
82851;DHT22;72609;45.768;4.884;2023-12-29T08:31:54;10.70;91.10
82851;DHT22;72609;45.768;4.884;2023-12-29T08:34:20;10.70;90.80
82851;DHT22;72609;45.768;4.884;2023-12-29T08:36:45;10.70;91.00
82851;DHT22;72609;45.768;4.884;2023-12-29T08:39:11;10.70;91.20
82851;DHT22;72609;45.768;4.884;2023-12-29T08:41:37;10.70;91.30
82851;DHT22;72609;45.768;4.884;2023-12-29T08:44:03;10.80;91.20
82851;DHT22;72609;45.768;4.884;2023-12-29T08:46:29;10.90;91.10
82851;DHT22;72609;45.768;4.884;2023-12-29T08:48:55;10.90;91.00
82851;DHT22;72609;45.768;4.884;2023-12-29T08:51:20;11.00;90.90
82851;DHT22;72609;45.768;4.884;2023-12-29T08:53:46;11.10;90.70
82851;DHT22;72609;45.768;4.884;2023-12-29T08:56:11;11.10;90.70
82851;DHT22;72609;45.768;4.884;2023-12-29T08:58:37;11.10;90.80
82851;DHT22;72609;45.768;4.884;2023-12-29T09:01:03;11.10;90.80
82851;DHT22;72609;45.768;4.884;2023-12-29T09:03:28;11.00;91.20
82851;DHT22;72609;45.768;4.884;2023-12-29T09:05:55;11.00;91.10
82851;DHT22;72609;45.768;4.884;2023-12-29T09:08:22;11.10;91.00
82851;DHT22;72609;45.768;4.884;2023-12-29T09:10:47;11.20;90.90
82851;DHT22;72609;45.768;4.884;2023-12-29T09:13:13;11.20;90.70
82851;DHT22;72609;45.768;4.884;2023-12-29T09:15:39;11.30;90.60
82851;DHT22;72609;45.768;4.884;2023-12-29T09:18:05;11.50;90.40
82851;DHT22;72609;45.768;4.884;2023-12-29T09:20:31;11.50;90.20
82851;DHT22;72609;45.768;4.884;2023-12-29T09:22:56;11.50;89.80
82851;DHT22;72609;45.768;4.884;2023-12-29T09:25:23;11.50;89.30
82851;DHT22;72609;45.768;4.884;2023-12-29T09:27:48;11.40;88.60
82851;DHT22;72609;45.768;4.884;2023-12-29T09:30:17;11.30;89.10
82851;DHT22;72609;45.768;4.884;2023-12-29T09:32:43;11.30;89.70
82851;DHT22;72609;45.768;4.884;2023-12-29T09:35:08;11.40;89.70
82851;DHT22;72609;45.768;4.884;2023-12-29T09:37:34;11.60;89.50
82851;DHT22;72609;45.768;4.884;2023-12-29T09:40:00;11.60;88.80
82851;DHT22;72609;45.768;4.884;2023-12-29T09:42:28;11.70;88.60
82851;DHT22;72609;45.768;4.884;2023-12-29T09:44:54;11.90;88.40
82851;DHT22;72609;45.768;4.884;2023-12-29T09:47:22;11.90;87.50
82851;DHT22;72609;45.768;4.884;2023-12-29T09:49:49;11.90;87.50
82851;DHT22;72609;45.768;4.884;2023-12-29T09:52:16;11.90;87.20
82851;DHT22;72609;45.768;4.884;2023-12-29T09:54:42;11.90;87.00
82851;DHT22;72609;45.768;4.884;2023-12-29T09:57:09;11.90;87.20
82851;DHT22;72609;45.768;4.884;2023-12-29T09:59:35;11.80;87.00
82851;DHT22;72609;45.768;4.884;2023-12-29T10:02:05;11.80;87.30
82851;DHT22;72609;45.768;4.884;2023-12-29T10:04:31;11.80;86.50
82851;DHT22;72609;45.768;4.884;2023-12-29T10:07:02;11.80;86.90
82851;DHT22;72609;45.768;4.884;2023-12-29T10:09:30;11.80;86.50
82851;DHT22;72609;45.768;4.884;2023-12-29T10:11:56;11.80;87.00
82851;DHT22;72609;45.768;4.884;2023-12-29T10:14:26;11.80;86.40
82851;DHT22;72609;45.768;4.884;2023-12-29T10:16:56;11.80;86.40
82851;DHT22;72609;45.768;4.884;2023-12-29T10:19:39;11.80;86.20
82851;DHT22;72609;45.768;4.884;2023-12-29T10:22:18;11.80;85.70
82851;DHT22;72609;45.768;4.884;2023-12-29T10:24:46;11.70;85.50
82851;DHT22;72609;45.768;4.884;2023-12-29T10:27:13;11.60;85.70
82851;DHT22;72609;45.768;4.884;2023-12-29T10:29:38;11.60;85.80
82851;DHT22;72609;45.768;4.884;2023-12-29T10:32:04;11.60;85.90
82851;DHT22;72609;45.768;4.884;2023-12-29T10:34:30;11.60;86.20
82851;DHT22;72609;45.768;4.884;2023-12-29T10:37:00;11.60;86.90
82851;DHT22;72609;45.768;4.884;2023-12-29T10:39:35;11.60;86.40
82851;DHT22;72609;45.768;4.884;2023-12-29T10:42:08;11.70;86.60
82851;DHT22;72609;45.768;4.884;2023-12-29T10:44:35;11.80;86.30
82851;DHT22;72609;45.768;4.884;2023-12-29T10:47:11;11.80;85.90
82851;DHT22;72609;45.768;4.884;2023-12-29T10:49:37;11.90;86.00
82851;DHT22;72609;45.768;4.884;2023-12-29T10:52:13;11.90;85.40
82851;DHT22;72609;45.768;4.884;2023-12-29T10:54:44;11.90;86.00
82851;DHT22;72609;45.768;4.884;2023-12-29T10:57:12;11.90;85.60
82851;DHT22;72609;45.768;4.884;2023-12-29T10:59:38;11.90;85.70
82851;DHT22;72609;45.768;4.884;2023-12-29T11:02:04;11.90;85.60
82851;DHT22;72609;45.768;4.884;2023-12-29T11:04:30;12.00;85.80
82851;DHT22;72609;45.768;4.884;2023-12-29T11:06:55;12.00;85.00
82851;DHT22;72609;45.768;4.884;2023-12-29T11:11:56;12.00;85.40
82851;DHT22;72609;45.768;4.884;2023-12-29T11:14:23;12.00;84.80
82851;DHT22;72609;45.768;4.884;2023-12-29T11:16:51;12.00;84.60
82851;DHT22;72609;45.768;4.884;2023-12-29T11:19:18;12.10;85.00
82851;DHT22;72609;45.768;4.884;2023-12-29T11:21:44;12.10;84.50
82851;DHT22;72609;45.768;4.884;2023-12-29T11:24:10;12.10;84.80
82851;DHT22;72609;45.768;4.884;2023-12-29T11:26:36;12.20;84.70
82851;DHT22;72609;45.768;4.884;2023-12-29T11:29:03;12.20;84.80
82851;DHT22;72609;45.768;4.884;2023-12-29T11:31:30;12.30;84.80
82851;DHT22;72609;45.768;4.884;2023-12-29T11:34:16;12.30;84.80
82851;DHT22;72609;45.768;4.884;2023-12-29T11:36:46;12.30;85.30
82851;DHT22;72609;45.768;4.884;2023-12-29T11:39:20;12.30;85.10
82851;DHT22;72609;45.768;4.884;2023-12-29T11:44:26;12.40;86.20
82851;DHT22;72609;45.768;4.884;2023-12-29T11:46:52;12.40;85.40
82851;DHT22;72609;45.768;4.884;2023-12-29T11:49:19;12.40;85.60
82851;DHT22;72609;45.768;4.884;2023-12-29T11:51:47;12.50;85.70
82851;DHT22;72609;45.768;4.884;2023-12-29T11:54:25;12.40;84.80
82851;DHT22;72609;45.768;4.884;2023-12-29T11:56:55;12.40;85.50
82851;DHT22;72609;45.768;4.884;2023-12-29T11:59:25;12.30;85.50
82851;DHT22;72609;45.768;4.884;2023-12-29T12:01:57;12.30;85.70
82851;DHT22;72609;45.768;4.884;2023-12-29T12:04:40;12.30;85.50
82851;DHT22;72609;45.768;4.884;2023-12-29T12:09:50;12.30;85.30
82851;DHT22;72609;45.768;4.884;2023-12-29T12:12:40;12.30;85.30
82851;DHT22;72609;45.768;4.884;2023-12-29T12:17:59;12.30;85.80
82851;DHT22;72609;45.768;4.884;2023-12-29T12:20:25;12.30;86.00
82851;DHT22;72609;45.768;4.884;2023-12-29T12:23:02;12.30;86.10
82851;DHT22;72609;45.768;4.884;2023-12-29T12:25:29;12.30;86.70
82851;DHT22;72609;45.768;4.884;2023-12-29T12:27:56;12.30;86.40
82851;DHT22;72609;45.768;4.884;2023-12-29T12:30:24;12.40;86.40
82851;DHT22;72609;45.768;4.884;2023-12-29T12:33:00;12.40;86.30
82851;DHT22;72609;45.768;4.884;2023-12-29T12:35:26;12.40;86.00
82851;DHT22;72609;45.768;4.884;2023-12-29T12:40:32;12.40;86.10
82851;DHT22;72609;45.768;4.884;2023-12-29T12:42:58;12.30;86.10
82851;DHT22;72609;45.768;4.884;2023-12-29T12:45:26;12.30;86.50
82851;DHT22;72609;45.768;4.884;2023-12-29T12:47:59;12.30;85.60
82851;DHT22;72609;45.768;4.884;2023-12-29T12:50:26;12.30;85.50
82851;DHT22;72609;45.768;4.884;2023-12-29T12:52:52;12.30;85.60
82851;DHT22;72609;45.768;4.884;2023-12-29T12:55:18;12.30;85.70
82851;DHT22;72609;45.768;4.884;2023-12-29T12:57:44;12.30;85.90
82851;DHT22;72609;45.768;4.884;2023-12-29T13:00:10;12.30;86.60
82851;DHT22;72609;45.768;4.884;2023-12-29T13:02:36;12.40;85.60
82851;DHT22;72609;45.768;4.884;2023-12-29T13:05:02;12.40;86.00
82851;DHT22;72609;45.768;4.884;2023-12-29T13:07:33;12.40;85.80
82851;DHT22;72609;45.768;4.884;2023-12-29T13:10:01;12.40;85.50
82851;DHT22;72609;45.768;4.884;2023-12-29T13:12:27;12.40;85.70
82851;DHT22;72609;45.768;4.884;2023-12-29T13:14:52;12.40;84.80
82851;DHT22;72609;45.768;4.884;2023-12-29T13:17:18;12.40;85.00
82851;DHT22;72609;45.768;4.884;2023-12-29T13:19:56;12.40;84.90
82851;DHT22;72609;45.768;4.884;2023-12-29T13:22:23;12.50;85.30
82851;DHT22;72609;45.768;4.884;2023-12-29T13:24:48;12.50;85.10
82851;DHT22;72609;45.768;4.884;2023-12-29T13:27:14;12.50;85.20
82851;DHT22;72609;45.768;4.884;2023-12-29T13:29:41;12.50;85.30
82851;DHT22;72609;45.768;4.884;2023-12-29T13:32:17;12.40;85.60
82851;DHT22;72609;45.768;4.884;2023-12-29T13:40:14;12.50;86.10
82851;DHT22;72609;45.768;4.884;2023-12-29T13:42:45;12.50;84.80
82851;DHT22;72609;45.768;4.884;2023-12-29T13:45:11;12.50;85.10
82851;DHT22;72609;45.768;4.884;2023-12-29T13:47:38;12.50;85.90
82851;DHT22;72609;45.768;4.884;2023-12-29T13:50:04;12.50;85.10
82851;DHT22;72609;45.768;4.884;2023-12-29T13:52:31;12.50;85.10
82851;DHT22;72609;45.768;4.884;2023-12-29T13:54:56;12.50;85.60
82851;DHT22;72609;45.768;4.884;2023-12-29T13:57:33;12.50;85.10
82851;DHT22;72609;45.768;4.884;2023-12-29T14:00:14;12.60;85.40
82851;DHT22;72609;45.768;4.884;2023-12-29T14:02:40;12.60;85.10
82851;DHT22;72609;45.768;4.884;2023-12-29T14:05:35;12.60;85.00
82851;DHT22;72609;45.768;4.884;2023-12-29T14:10:30;12.60;85.10
82851;DHT22;72609;45.768;4.884;2023-12-29T14:15:38;12.60;84.80
82851;DHT22;72609;45.768;4.884;2023-12-29T14:18:26;12.60;85.00
82851;DHT22;72609;45.768;4.884;2023-12-29T14:20:56;12.70;84.90
82851;DHT22;72609;45.768;4.884;2023-12-29T14:23:21;12.70;84.90
82851;DHT22;72609;45.768;4.884;2023-12-29T14:25:47;12.70;84.90
82851;DHT22;72609;45.768;4.884;2023-12-29T14:28:17;12.70;85.20
82851;DHT22;72609;45.768;4.884;2023-12-29T14:30:44;12.70;85.20
82851;DHT22;72609;45.768;4.884;2023-12-29T14:33:10;12.70;85.00
82851;DHT22;72609;45.768;4.884;2023-12-29T14:35:35;12.70;85.10
82851;DHT22;72609;45.768;4.884;2023-12-29T14:38:01;12.70;85.10
82851;DHT22;72609;45.768;4.884;2023-12-29T14:40:27;12.60;84.90
82851;DHT22;72609;45.768;4.884;2023-12-29T14:42:53;12.60;84.90
82851;DHT22;72609;45.768;4.884;2023-12-29T14:45:18;12.60;85.00
82851;DHT22;72609;45.768;4.884;2023-12-29T14:47:44;12.60;85.10
82851;DHT22;72609;45.768;4.884;2023-12-29T14:50:14;12.60;85.00
82851;DHT22;72609;45.768;4.884;2023-12-29T14:52:40;12.60;85.10
82851;DHT22;72609;45.768;4.884;2023-12-29T14:55:09;12.60;85.30
82851;DHT22;72609;45.768;4.884;2023-12-29T14:57:35;12.60;85.20
82851;DHT22;72609;45.768;4.884;2023-12-29T15:00:00;12.60;85.30
82851;DHT22;72609;45.768;4.884;2023-12-29T15:02:26;12.60;85.20
82851;DHT22;72609;45.768;4.884;2023-12-29T15:04:51;12.60;85.20
82851;DHT22;72609;45.768;4.884;2023-12-29T15:07:17;12.60;85.10
82851;DHT22;72609;45.768;4.884;2023-12-29T15:09:43;12.60;84.90
82851;DHT22;72609;45.768;4.884;2023-12-29T15:12:09;12.60;84.60
82851;DHT22;72609;45.768;4.884;2023-12-29T15:14:35;12.60;84.70
82851;DHT22;72609;45.768;4.884;2023-12-29T15:17:00;12.60;85.00
82851;DHT22;72609;45.768;4.884;2023-12-29T15:19:26;12.60;85.00
82851;DHT22;72609;45.768;4.884;2023-12-29T15:21:51;12.50;85.10
82851;DHT22;72609;45.768;4.884;2023-12-29T15:24:19;12.60;85.10
82851;DHT22;72609;45.768;4.884;2023-12-29T15:26:46;12.50;85.10
82851;DHT22;72609;45.768;4.884;2023-12-29T15:29:11;12.60;85.20
82851;DHT22;72609;45.768;4.884;2023-12-29T15:31:37;12.50;85.20
82851;DHT22;72609;45.768;4.884;2023-12-29T15:34:03;12.50;85.40
82851;DHT22;72609;45.768;4.884;2023-12-29T15:36:29;12.50;85.60
82851;DHT22;72609;45.768;4.884;2023-12-29T15:38:55;12.50;85.60
82851;DHT22;72609;45.768;4.884;2023-12-29T15:41:20;12.50;85.60
82851;DHT22;72609;45.768;4.884;2023-12-29T15:43:46;12.40;85.60
82851;DHT22;72609;45.768;4.884;2023-12-29T15:46:17;12.40;86.10
82851;DHT22;72609;45.768;4.884;2023-12-29T15:48:43;12.40;85.80
82851;DHT22;72609;45.768;4.884;2023-12-29T15:51:10;12.50;85.80
82851;DHT22;72609;45.768;4.884;2023-12-29T15:53:36;12.50;85.80